Terminal Aerodrome Forecast
Issued by NWS

Home | Current Version | Previous Version | Text Only | Print | Product List | Glossary On
Versions: 1 2 3 4 5 6 7 8 9 10 11 12 13 14 15 16 17 18
000
FTUS46 KLOX 040841 AAA
TAFLGB
TAF AMD
KLGB 040841Z 0409/0506 VRB03KT P6SM BKN013
     FM041100 VRB03KT P6SM OVC009
     FM041600 VRB03KT P6SM BKN010 BKN150
     FM041800 19008KT P6SM BKN150
     FM042200 29012KT P6SM BKN150
     FM050400 VRB03KT P6SM OVC015=

USA.gov is the U.S. government's official web portal to all federal, state and local government web resources and services.